Time;durP1;ratioP1;P1;durP2;ratioP2;P2;SDS_P1;SDS_P2;PMS_P1;PMS_P2;Temp;Humidity;BMP_temperature;BMP_pressure;BME280_temperature;BME280_humidity;BME280_pressure;Samples;Min_cycle;Max_cycle;Signal;HPM_P1;HPM_P2
2021/03/30 00:00:25;;;;;;;8.40;1.93;;;;;;;11.00;55.37;99570.41;5010110;28;20640;-69
2021/03/30 00:02:52;;;;;;;4.27;1.67;;;;;;;10.98;54.33;99571.56;5009620;28;20715;-69
2021/03/30 00:05:19;;;;;;;4.97;1.60;;;;;;;11.09;53.67;99568.56;5011341;28;20233;-69
2021/03/30 00:07:46;;;;;;;4.67;1.73;;;;;;;11.05;54.35;99556.53;5011310;28;20279;-70
2021/03/30 00:10:15;;;;;;;8.50;2.03;;;;;;;10.88;55.37;99562.06;5011011;28;20214;-69
2021/03/30 00:12:42;;;;;;;5.00;1.50;;;;;;;10.83;55.66;99557.19;5006664;28;20239;-70
2021/03/30 00:15:12;;;;;;;2.47;1.60;;;;;;;10.72;56.44;99557.50;5006685;28;20262;-71
2021/03/30 00:17:39;;;;;;;2.90;1.53;;;;;;;10.63;56.87;99549.66;5005928;28;20214;-71
2021/03/30 00:20:09;;;;;;;6.63;2.07;;;;;;;10.57;57.65;99551.97;5010680;28;20207;-70
2021/03/30 00:22:36;;;;;;;6.97;2.10;;;;;;;10.48;59.14;99553.97;5015350;28;20375;-71
2021/03/30 00:25:04;;;;;;;5.33;2.17;;;;;;;10.50;59.89;99550.94;5012380;28;20230;-71
2021/03/30 00:27:31;;;;;;;3.90;1.30;;;;;;;10.50;60.87;99540.28;5013619;28;20229;-71
2021/03/30 00:29:57;;;;;;;4.13;1.90;;;;;;;10.47;62.11;99545.09;5007810;28;20206;-70
2021/03/30 00:32:25;;;;;;;1.93;1.30;;;;;;;10.43;61.84;99547.28;5010554;28;20599;-71
2021/03/30 00:34:52;;;;;;;3.00;1.80;;;;;;;10.40;61.69;99546.75;5010647;28;20719;-72
2021/03/30 00:37:19;;;;;;;4.00;1.40;;;;;;;10.27;62.45;99549.91;5006608;28;20671;-71
2021/03/30 00:39:46;;;;;;;2.13;1.30;;;;;;;10.23;62.46;99544.19;5010878;28;20269;-71
2021/03/30 00:42:17;;;;;;;4.33;1.47;;;;;;;10.04;64.36;99543.44;5011759;28;20203;-71
2021/03/30 00:44:44;;;;;;;4.37;1.77;;;;;;;10.07;63.07;99543.13;5011106;28;20604;-72
2021/03/30 00:47:13;;;;;;;3.70;1.50;;;;;;;10.18;62.74;99542.84;5011754;28;20211;-71
2021/03/30 00:49:42;;;;;;;4.33;1.70;;;;;;;10.22;61.72;99539.88;5010964;28;20542;-71
2021/03/30 00:52:08;;;;;;;5.60;1.60;;;;;;;10.12;62.93;99541.84;5010339;28;20218;-71
2021/03/30 00:54:36;;;;;;;3.37;1.40;;;;;;;9.98;65.08;99538.72;5010536;28;20199;-71
2021/03/30 00:57:03;;;;;;;4.50;1.50;;;;;;;9.98;63.13;99541.41;5010302;28;20202;-71
2021/03/30 00:59:30;;;;;;;3.57;1.37;;;;;;;10.07;62.51;99538.81;5006893;28;20213;-71
2021/03/30 01:01:57;;;;;;;2.67;1.53;;;;;;;10.08;62.79;99544.81;5010892;28;20215;-71
2021/03/30 01:04:24;;;;;;;5.93;1.50;;;;;;;10.07;61.36;99549.47;5009163;28;20244;-71
2021/03/30 01:06:52;;;;;;;4.23;1.87;;;;;;;9.96;62.55;99546.06;5010728;28;20211;-72
2021/03/30 01:09:34;;;;;;;6.37;1.70;;;;;;;9.91;64.85;99552.84;5010822;28;20199;-71
2021/03/30 01:12:12;;;;;;;4.97;1.63;;;;;;;9.96;65.20;99546.06;5009630;28;20270;-71
2021/03/30 01:14:47;;;;;;;5.57;1.90;;;;;;;9.92;64.74;99550.03;5010129;28;20197;-71
2021/03/30 01:17:24;;;;;;;7.60;1.70;;;;;;;9.83;65.56;99550.13;5012508;28;20202;-71
2021/03/30 01:20:06;;;;;;;4.90;1.93;;;;;;;9.61;69.61;99548.03;5010700;28;20209;-73
2021/03/30 01:23:07;;;;;;;4.63;1.83;;;;;;;9.69;69.86;99540.91;5012552;28;20249;-70
2021/03/30 01:25:37;;;;;;;5.33;1.80;;;;;;;9.74;69.74;99540.44;5010057;28;20235;-71
2021/03/30 01:28:06;;;;;;;8.10;1.80;;;;;;;9.81;69.49;99544.13;5012309;28;20210;-71
2021/03/30 01:30:34;;;;;;;5.30;1.73;;;;;;;9.65;70.82;99536.06;5012959;28;20213;-71
2021/03/30 01:33:05;;;;;;;4.30;1.63;;;;;;;9.55;72.22;99538.81;5013497;28;20268;-71
2021/03/30 01:35:32;;;;;;;4.20;1.93;;;;;;;9.62;71.65;99534.53;5013910;28;20201;-71
2021/03/30 01:37:59;;;;;;;4.27;1.87;;;;;;;9.72;71.14;99543.25;5013222;28;20202;-71
2021/03/30 01:40:28;;;;;;;5.37;2.27;;;;;;;9.70;71.36;99534.56;5013337;28;20203;-72
2021/03/30 01:42:55;;;;;;;5.80;2.10;;;;;;;9.58;72.61;99537.66;5012948;28;20225;-71
2021/03/30 01:45:23;;;;;;;4.80;2.07;;;;;;;9.53;73.40;99540.81;5012798;28;20231;-71
2021/03/30 01:47:51;;;;;;;4.03;1.67;;;;;;;9.57;73.26;99536.00;5016004;28;20210;-71
2021/03/30 01:50:18;;;;;;;5.33;1.53;;;;;;;9.53;72.74;99539.97;5012674;28;20568;-71
2021/03/30 01:52:45;;;;;;;5.70;1.70;;;;;;;9.55;72.05;99536.16;5012990;28;20230;-71
2021/03/30 01:55:14;;;;;;;4.57;1.70;;;;;;;9.52;72.43;99538.28;5013355;28;20198;-72
2021/03/30 01:57:45;;;;;;;2.70;1.40;;;;;;;9.26;74.54;99537.47;5013194;28;20221;-71
2021/03/30 02:00:13;;;;;;;3.13;1.53;;;;;;;9.39;74.42;99536.03;5013092;28;20219;-71
2021/03/30 02:02:42;;;;;;;5.50;2.00;;;;;;;9.37;74.85;99539.84;5012968;28;20240;-71
2021/03/30 02:05:11;;;;;;;4.70;1.70;;;;;;;9.39;74.46;99530.72;5013029;28;20264;-71
2021/03/30 02:07:38;;;;;;;6.33;1.97;;;;;;;9.34;74.40;99541.00;5013293;28;20309;-72
2021/03/30 02:10:11;;;;;;;3.63;1.83;;;;;;;9.24;75.42;99534.94;5012693;28;20216;-71
2021/03/30 02:12:42;;;;;;;4.67;1.87;;;;;;;9.27;76.05;99534.63;5012557;28;20699;-72
2021/03/30 02:15:12;;;;;;;3.70;1.70;;;;;;;9.12;77.06;99535.34;5012217;28;20290;-71
2021/03/30 02:17:41;;;;;;;3.57;2.00;;;;;;;9.03;78.03;99528.31;5013194;28;20213;-70
2021/03/30 02:20:13;;;;;;;3.03;1.57;;;;;;;9.09;78.09;99525.00;5012607;28;20210;-71
2021/03/30 02:22:44;;;;;;;3.43;1.50;;;;;;;9.12;77.21;99530.00;5012743;28;20240;-71
2021/03/30 02:25:11;;;;;;;3.93;1.60;;;;;;;9.10;75.97;99529.34;5012529;28;20238;-71
2021/03/30 02:27:41;;;;;;;5.27;1.63;;;;;;;9.14;76.28;99528.88;5012263;28;20206;-71
2021/03/30 02:30:10;;;;;;;4.60;2.00;;;;;;;9.12;75.66;99524.69;5012737;28;20693;-71
2021/03/30 02:32:39;;;;;;;5.63;1.67;;;;;;;9.01;76.75;99533.78;5012586;28;20225;-71
2021/03/30 02:35:08;;;;;;;2.90;1.60;;;;;;;8.78;77.93;99527.22;5012229;28;20210;-72
2021/03/30 02:37:36;;;;;;;6.00;1.70;;;;;;;8.75;79.20;99529.38;5012423;28;20210;-71
2021/03/30 02:40:06;;;;;;;3.80;1.57;;;;;;;8.75;79.17;99526.72;5012182;28;20337;-71
2021/03/30 02:42:33;;;;;;;1.67;1.40;;;;;;;8.67;79.67;99521.34;5008964;28;20229;-71
2021/03/30 02:45:01;;;;;;;4.70;1.87;;;;;;;8.72;78.76;99519.06;5012326;28;20371;-71
2021/03/30 02:47:28;;;;;;;2.33;1.63;;;;;;;8.75;77.91;99522.25;5012531;28;20206;-71
2021/03/30 02:49:55;;;;;;;3.30;1.63;;;;;;;8.88;76.36;99524.50;5012265;28;20236;-71
2021/03/30 02:52:24;;;;;;;4.70;2.30;;;;;;;8.75;77.82;99527.56;5012428;28;20229;-71
2021/03/30 02:54:52;;;;;;;2.93;1.80;;;;;;;8.56;80.76;99532.19;5012290;28;20336;-71
2021/03/30 02:57:19;;;;;;;4.40;1.90;;;;;;;8.58;80.83;99528.38;5012066;28;20216;-71
2021/03/30 02:59:46;;;;;;;6.07;1.87;;;;;;;8.65;80.26;99533.94;5012284;28;20549;-71
2021/03/30 03:02:14;;;;;;;7.10;2.40;;;;;;;8.66;80.51;99538.25;5011898;28;20207;-71
2021/03/30 03:04:42;;;;;;;4.60;2.07;;;;;;;8.59;80.56;99535.41;5011831;28;20228;-71
2021/03/30 03:07:08;;;;;;;2.63;1.80;;;;;;;8.61;79.69;99536.06;5011381;28;20214;-71
2021/03/30 03:09:36;;;;;;;8.63;2.00;;;;;;;8.62;79.42;99537.72;5012336;28;20208;-71
2021/03/30 03:12:05;;;;;;;11.93;2.83;;;;;;;8.49;81.43;99542.59;5011633;28;20218;-71
2021/03/30 03:14:33;;;;;;;5.63;1.83;;;;;;;8.52;80.71;99539.63;5011191;28;20216;-70
2021/03/30 03:17:01;;;;;;;5.40;1.97;;;;;;;8.39;82.23;99533.84;5014500;28;20624;-70
2021/03/30 03:19:28;;;;;;;4.20;1.97;;;;;;;8.29;84.45;99540.22;5013266;28;20568;-71
2021/03/30 03:21:55;;;;;;;4.13;2.13;;;;;;;8.28;84.22;99538.53;5015338;28;20551;-71
2021/03/30 03:24:22;;;;;;;3.93;1.70;;;;;;;8.36;82.96;99539.47;5024821;28;20271;-70
2021/03/30 03:26:49;;;;;;;3.27;2.20;;;;;;;8.51;81.92;99534.44;5018530;28;20205;-71
2021/03/30 03:29:18;;;;;;;4.13;1.70;;;;;;;8.44;82.16;99542.22;5016689;28;20291;-71
2021/03/30 03:31:45;;;;;;;4.57;2.33;;;;;;;8.40;82.16;99540.00;5013416;28;20296;-70
2021/03/30 03:34:12;;;;;;;4.10;2.17;;;;;;;8.36;83.17;99536.81;5011930;28;20232;-71
2021/03/30 03:36:41;;;;;;;4.63;2.57;;;;;;;8.37;82.47;99542.97;5010878;28;20206;-72
2021/03/30 03:39:10;;;;;;;3.53;1.90;;;;;;;8.32;83.19;99540.75;5011656;28;20216;-71
2021/03/30 03:41:38;;;;;;;8.77;1.90;;;;;;;8.26;83.46;99537.84;5011161;28;20711;-70
2021/03/30 03:44:05;;;;;;;3.53;1.73;;;;;;;8.11;85.61;99534.81;5009337;28;20284;-71
2021/03/30 03:46:33;;;;;;;4.90;1.70;;;;;;;8.18;85.26;99545.69;5007113;28;20227;-71
2021/03/30 03:49:01;;;;;;;3.13;1.80;;;;;;;8.17;85.24;99539.53;5011380;28;20295;-72
2021/03/30 03:51:32;;;;;;;3.67;1.60;;;;;;;8.08;83.47;99537.75;5011423;28;20228;-71
2021/03/30 03:54:01;;;;;;;4.00;1.60;;;;;;;8.15;82.84;99538.84;5012635;28;20223;-71
2021/03/30 03:56:30;;;;;;;6.00;1.50;;;;;;;8.23;82.55;99538.97;5012913;28;20202;-71
2021/03/30 03:59:01;;;;;;;3.33;1.50;;;;;;;8.30;81.12;99536.56;5012028;28;20215;-71
2021/03/30 04:01:36;;;;;;;3.73;1.70;;;;;;;8.31;81.02;99541.72;5006286;28;20231;-71
2021/03/30 04:04:07;;;;;;;6.73;2.50;;;;;;;8.13;82.60;99542.66;5011292;28;20716;-71
2021/03/30 04:06:37;;;;;;;4.43;2.00;;;;;;;8.08;82.41;99542.25;5008667;28;20231;-71
2021/03/30 04:09:05;;;;;;;4.00;2.20;;;;;;;8.21;81.73;99545.41;5010928;28;20209;-71
2021/03/30 04:11:32;;;;;;;6.20;1.70;;;;;;;8.21;81.31;99548.94;5007433;28;20205;-71
2021/03/30 04:13:59;;;;;;;4.37;2.33;;;;;;;8.17;82.35;99546.69;5014465;28;20236;-71
2021/03/30 04:16:26;;;;;;;3.40;2.00;;;;;;;8.12;83.60;99533.81;5013957;28;20228;-71
2021/03/30 04:18:54;;;;;;;6.40;1.80;;;;;;;8.10;82.96;99534.97;5012580;28;20200;-71
2021/03/30 04:21:23;;;;;;;6.03;1.97;;;;;;;8.11;82.79;99544.59;5011253;28;20223;-71
2021/03/30 04:23:51;;;;;;;3.07;1.37;;;;;;;8.12;82.68;99540.97;5011062;28;20708;-71
2021/03/30 04:26:19;;;;;;;6.00;1.87;;;;;;;8.18;82.08;99546.53;5016286;28;20268;-71
2021/03/30 04:28:45;;;;;;;6.13;1.93;;;;;;;7.98;84.33;99547.63;5011295;28;20284;-71
2021/03/30 04:31:12;;;;;;;3.47;1.80;;;;;;;8.10;84.75;99549.09;5011884;28;20205;-71
2021/03/30 04:33:39;;;;;;;3.00;1.50;;;;;;;8.04;84.48;99554.16;5010924;28;20237;-71
2021/03/30 04:36:08;;;;;;;3.73;1.67;;;;;;;7.99;84.17;99553.78;5010673;28;20725;-71
2021/03/30 04:38:35;;;;;;;2.87;1.50;;;;;;;8.06;84.19;99550.38;5011171;28;20204;-71
2021/03/30 04:41:02;;;;;;;4.00;1.57;;;;;;;7.90;86.04;99550.19;5011850;28;20206;-71
2021/03/30 04:43:29;;;;;;;8.70;1.97;;;;;;;7.91;86.34;99546.53;5010745;28;20232;-72
2021/03/30 04:45:55;;;;;;;5.87;2.10;;;;;;;7.92;85.63;99550.84;5017092;28;20226;-71
2021/03/30 04:48:22;;;;;;;6.13;2.07;;;;;;;7.84;85.54;99555.22;5011734;28;20680;-70
2021/03/30 04:50:49;;;;;;;4.43;1.80;;;;;;;8.06;84.14;99561.00;5013735;28;20204;-71
2021/03/30 04:53:17;;;;;;;6.20;1.97;;;;;;;8.02;84.72;99558.81;5010469;28;20228;-71
2021/03/30 04:55:43;;;;;;;6.43;1.87;;;;;;;8.02;84.72;99561.47;5012375;28;20568;-70
2021/03/30 04:58:10;;;;;;;6.63;2.50;;;;;;;7.97;85.05;99561.88;5014334;28;20632;-71
2021/03/30 05:00:37;;;;;;;5.47;2.00;;;;;;;7.73;88.08;99561.59;5014806;28;20208;-70
2021/03/30 05:03:04;;;;;;;3.97;2.07;;;;;;;7.81;88.25;99564.34;5017986;28;20228;-70
2021/03/30 05:05:31;;;;;;;5.80;1.90;;;;;;;7.85;89.04;99567.53;5024060;28;20268;-70
2021/03/30 05:07:58;;;;;;;6.73;2.20;;;;;;;7.83;88.89;99570.38;5020061;28;21816;-70
2021/03/30 05:10:26;;;;;;;7.60;2.13;;;;;;;7.92;88.32;99561.50;5019557;28;20272;-70
2021/03/30 05:12:53;;;;;;;4.13;1.90;;;;;;;7.87;88.70;99562.94;5009550;28;20245;-70
2021/03/30 05:15:20;;;;;;;5.37;2.10;;;;;;;7.84;89.80;99563.22;5020160;28;20211;-70
2021/03/30 05:17:46;;;;;;;5.17;2.27;;;;;;;7.88;90.85;99565.44;5017459;28;20573;-70
2021/03/30 05:20:14;;;;;;;12.10;2.73;;;;;;;7.95;90.78;99566.53;5015655;28;20204;-70
2021/03/30 05:22:41;;;;;;;13.03;2.40;;;;;;;7.97;90.46;99569.84;5014018;28;20224;-70
2021/03/30 05:25:08;;;;;;;7.73;2.30;;;;;;;7.85;92.02;99568.38;5014754;28;20778;-70
2021/03/30 05:27:36;;;;;;;10.47;2.33;;;;;;;8.07;90.79;99569.84;5017084;28;20215;-76
2021/03/30 05:30:04;;;;;;;12.55;3.10;;;;;;;8.19;89.48;99564.19;5017519;28;21015;-70
2021/03/30 05:32:31;;;;;;;9.93;2.93;;;;;;;8.09;90.82;99559.88;5014056;28;20234;-70
2021/03/30 05:34:58;;;;;;;8.00;2.90;;;;;;;8.24;90.16;99569.91;5019260;28;20667;-72
2021/03/30 05:37:24;;;;;;;7.90;2.60;;;;;;;8.34;89.00;99564.53;5019246;28;20573;-74
2021/03/30 05:39:51;;;;;;;9.83;2.73;;;;;;;8.38;88.61;99571.25;5015618;28;20298;-74
2021/03/30 05:42:19;;;;;;;10.67;2.80;;;;;;;8.38;89.29;99577.38;5013676;28;20220;-70
2021/03/30 05:44:47;;;;;;;10.50;2.97;;;;;;;8.35;90.21;99569.72;5012770;28;20590;-71
2021/03/30 05:47:16;;;;;;;7.10;2.50;;;;;;;8.50;88.80;99570.03;5016923;28;20225;-70
2021/03/30 05:49:44;;;;;;;9.50;2.80;;;;;;;8.58;88.70;99572.78;5014843;28;20206;-70
2021/03/30 05:52:17;;;;;;;8.83;3.17;;;;;;;8.64;87.95;99566.88;5016571;28;20651;-70
2021/03/30 05:54:47;;;;;;;11.23;3.20;;;;;;;8.73;87.44;99577.44;5005782;28;20265;-69
2021/03/30 05:57:16;;;;;;;8.50;2.83;;;;;;;8.87;86.38;99578.72;5016846;28;20235;-70
2021/03/30 05:59:45;;;;;;;10.60;3.23;;;;;;;8.97;85.39;99575.00;5014978;28;20633;-70
2021/03/30 06:02:21;;;;;;;7.43;3.23;;;;;;;9.06;84.84;99574.09;5012620;28;20217;-70
2021/03/30 06:04:49;;;;;;;10.30;3.30;;;;;;;9.18;84.06;99574.69;5009005;28;20304;-69
2021/03/30 06:07:16;;;;;;;5.43;2.43;;;;;;;9.30;83.01;99584.97;5012742;28;20206;-70
2021/03/30 06:09:44;;;;;;;11.23;2.83;;;;;;;9.44;81.45;99584.38;5012656;28;20244;-71
2021/03/30 06:12:13;;;;;;;10.77;2.87;;;;;;;9.62;79.82;99589.66;5014268;28;20222;-71
2021/03/30 06:14:43;;;;;;;6.27;2.70;;;;;;;9.69;79.66;99590.72;5028881;28;20273;-73
2021/03/30 06:17:12;;;;;;;8.00;2.93;;;;;;;9.82;79.53;99589.31;5027035;28;20285;-71
2021/03/30 06:19:54;;;;;;;10.03;3.20;;;;;;;9.92;78.59;99592.72;5020942;28;20202;-74
2021/03/30 06:22:22;;;;;;;7.00;3.30;;;;;;;9.98;78.50;99600.06;5011403;28;20210;-73
2021/03/30 06:24:48;;;;;;;7.77;2.60;;;;;;;10.07;77.18;99594.81;5018279;28;20207;-74
2021/03/30 06:27:21;;;;;;;7.27;2.67;;;;;;;10.29;76.10;99597.72;5019222;28;20256;-76
2021/03/30 06:29:49;;;;;;;9.50;3.20;;;;;;;10.35;74.96;99597.94;5014052;28;20649;-75
2021/03/30 06:32:17;;;;;;;10.17;3.07;;;;;;;10.55;73.41;99598.53;5012635;28;20268;-76
2021/03/30 06:34:45;;;;;;;8.53;2.90;;;;;;;10.65;72.52;99608.06;5012076;28;20290;-74
2021/03/30 06:37:31;;;;;;;10.20;3.47;;;;;;;10.85;71.89;99598.75;5011280;28;20648;-71
2021/03/30 06:39:59;;;;;;;9.23;3.37;;;;;;;10.94;69.58;99604.94;5011213;28;20278;-71
2021/03/30 06:42:32;;;;;;;8.30;2.83;;;;;;;11.15;68.33;99607.97;5010827;28;20231;-73
2021/03/30 06:44:59;;;;;;;9.17;2.97;;;;;;;11.33;67.26;99600.66;5011577;28;20294;-70
2021/03/30 06:47:26;;;;;;;8.57;3.47;;;;;;;11.32;66.68;99607.81;5014590;28;20199;-70
2021/03/30 06:49:54;;;;;;;10.37;3.57;;;;;;;11.56;65.45;99607.00;5013368;28;20238;-70
2021/03/30 06:52:25;;;;;;;6.33;3.13;;;;;;;11.62;63.81;99613.53;5011886;28;20250;-70
2021/03/30 06:54:55;;;;;;;8.17;2.90;;;;;;;11.64;61.91;99604.34;5015033;28;20222;-70
2021/03/30 06:57:34;;;;;;;8.03;3.00;;;;;;;11.88;61.02;99612.34;5007911;28;20213;-71
2021/03/30 07:00:02;;;;;;;7.00;3.00;;;;;;;11.81;59.93;99618.53;5011177;28;20573;-71
2021/03/30 07:02:29;;;;;;;8.07;3.23;;;;;;;12.11;59.10;99613.28;5007577;28;20651;-72
2021/03/30 07:04:56;;;;;;;9.00;3.33;;;;;;;12.11;58.29;99609.78;5011284;28;20282;-70
2021/03/30 07:07:24;;;;;;;11.13;3.77;;;;;;;12.50;56.03;99614.16;5012052;28;20218;-71
2021/03/30 07:09:53;;;;;;;10.13;3.40;;;;;;;12.61;55.66;99612.94;5012234;28;20205;-71
2021/03/30 07:12:23;;;;;;;10.40;3.27;;;;;;;12.69;55.75;99613.72;5007984;28;20219;-71
2021/03/30 07:14:50;;;;;;;5.43;2.90;;;;;;;12.84;55.48;99612.78;5010846;28;20232;-71
2021/03/30 07:17:30;;;;;;;7.87;3.60;;;;;;;13.02;54.65;99615.22;5010572;28;20208;-71
2021/03/30 07:19:59;;;;;;;11.20;3.40;;;;;;;13.16;53.31;99622.50;5013619;28;20213;-71
2021/03/30 07:22:28;;;;;;;8.23;3.67;;;;;;;13.42;52.47;99617.63;5007807;28;20224;-71
2021/03/30 07:25:01;;;;;;;9.97;3.37;;;;;;;13.62;51.99;99621.47;5011082;28;20202;-71
2021/03/30 07:27:30;;;;;;;11.20;4.07;;;;;;;13.32;50.84;99630.44;5011329;28;20212;-71
2021/03/30 07:30:00;;;;;;;7.30;3.47;;;;;;;13.80;49.89;99623.84;5011340;28;20660;-72
2021/03/30 07:32:37;;;;;;;8.80;3.13;;;;;;;14.12;48.62;99621.66;5008908;28;20773;-74
2021/03/30 07:35:11;;;;;;;8.97;3.80;;;;;;;14.38;47.99;99626.63;5012038;28;20201;-70
2021/03/30 07:37:41;;;;;;;12.83;4.13;;;;;;;14.49;48.37;99618.09;5008035;28;20564;-71
2021/03/30 07:40:11;;;;;;;10.67;3.67;;;;;;;14.41;47.70;99624.41;5011090;28;20267;-73
2021/03/30 07:42:41;;;;;;;8.97;3.63;;;;;;;14.78;47.00;99632.31;5011206;28;20255;-73
2021/03/30 07:45:09;;;;;;;8.83;3.40;;;;;;;14.17;47.97;99627.31;5010200;28;20211;-71
2021/03/30 07:47:37;;;;;;;13.93;3.73;;;;;;;14.44;47.11;99631.25;5016683;28;20207;-72
2021/03/30 07:50:06;;;;;;;8.83;3.67;;;;;;;14.44;47.78;99628.56;5011222;28;20248;-71
2021/03/30 07:52:40;;;;;;;11.37;3.67;;;;;;;14.57;46.13;99631.41;5011124;28;20588;-72
2021/03/30 07:55:22;;;;;;;11.70;3.13;;;;;;;14.75;45.83;99631.88;5010629;28;20256;-71
2021/03/30 07:58:10;;;;;;;8.53;3.90;;;;;;;15.03;45.46;99630.13;5009666;28;20579;-72
2021/03/30 08:00:48;;;;;;;8.23;3.90;;;;;;;14.76;46.69;99629.00;5009355;28;20214;-72
2021/03/30 08:03:19;;;;;;;13.13;5.23;;;;;;;14.71;47.31;99631.41;5011246;28;20223;-72
2021/03/30 08:06:00;;;;;;;12.30;4.17;;;;;;;15.61;43.78;99638.84;5009431;28;20223;-71
2021/03/30 08:08:27;;;;;;;8.03;3.50;;;;;;;15.91;43.18;99636.81;5014309;28;20207;-70
2021/03/30 08:10:55;;;;;;;9.73;4.53;;;;;;;15.00;44.71;99636.72;5011104;28;20561;-70
2021/03/30 08:13:26;;;;;;;9.97;3.97;;;;;;;15.54;43.69;99632.56;5009057;28;20232;-71
2021/03/30 08:15:54;;;;;;;10.17;4.00;;;;;;;14.96;45.13;99632.75;5010782;28;20227;-70
2021/03/30 08:18:23;;;;;;;9.83;4.03;;;;;;;15.00;45.20;99634.03;5011611;28;20211;-70
2021/03/30 08:21:08;;;;;;;11.50;3.70;;;;;;;15.44;44.64;99631.22;5012939;28;20208;-71
2021/03/30 08:24:09;;;;;;;8.77;4.43;;;;;;;16.18;42.97;99623.34;5011370;28;20620;-70
2021/03/30 08:26:40;;;;;;;14.77;4.40;;;;;;;16.09;42.14;99629.06;5008080;28;20225;-71
2021/03/30 08:29:10;;;;;;;12.67;4.73;;;;;;;16.76;40.72;99636.34;5008945;28;20217;-70
2021/03/30 08:31:39;;;;;;;9.60;3.93;;;;;;;16.21;42.16;99625.63;5018276;28;20342;-72
2021/03/30 08:34:09;;;;;;;11.03;3.90;;;;;;;16.34;41.81;99628.44;5017769;28;20259;-71
2021/03/30 08:36:45;;;;;;;7.87;3.93;;;;;;;17.02;40.17;99633.75;5015846;28;20285;-69
2021/03/30 08:39:31;;;;;;;10.87;4.57;;;;;;;16.90;40.08;99632.69;5017938;28;20213;-69
2021/03/30 08:42:01;;;;;;;13.07;4.53;;;;;;;17.47;39.41;99638.47;5013802;28;20298;-68
2021/03/30 08:44:37;;;;;;;10.13;4.03;;;;;;;17.29;39.97;99634.66;5015415;28;20585;-68
2021/03/30 08:47:04;;;;;;;10.83;3.70;;;;;;;17.78;38.53;99640.59;5014571;28;20611;-68
2021/03/30 08:49:37;;;;;;;8.33;4.23;;;;;;;16.94;39.60;99641.19;5016002;28;20207;-69
2021/03/30 08:52:07;;;;;;;7.67;4.07;;;;;;;17.27;39.27;99639.44;5016215;28;20203;-69
2021/03/30 08:54:35;;;;;;;9.83;3.90;;;;;;;18.24;37.66;99649.53;5015180;28;20209;-71
2021/03/30 08:57:06;;;;;;;9.93;4.40;;;;;;;17.22;39.02;99642.75;5017402;28;20679;-71
2021/03/30 08:59:33;;;;;;;11.90;4.20;;;;;;;17.99;38.46;99641.19;5020313;28;20284;-71
2021/03/30 09:02:05;;;;;;;17.43;4.80;;;;;;;17.48;38.86;99640.13;5014818;28;20214;-70
2021/03/30 09:04:36;;;;;;;10.07;3.70;;;;;;;17.94;38.11;99642.88;5010084;28;20676;-71
2021/03/30 09:07:04;;;;;;;11.70;3.60;;;;;;;18.07;38.55;99643.72;5020243;28;20227;-71
2021/03/30 09:09:35;;;;;;;10.57;4.33;;;;;;;17.90;38.34;99644.34;5033074;28;20236;-71
2021/03/30 09:12:04;;;;;;;9.60;3.87;;;;;;;18.31;37.95;99644.91;5033197;28;20219;-72
2021/03/30 09:14:31;;;;;;;9.03;4.10;;;;;;;18.48;37.54;99640.75;5028127;28;20206;-71
2021/03/30 09:17:06;;;;;;;9.70;4.17;;;;;;;18.24;37.52;99644.13;5029907;28;20212;-71
2021/03/30 09:19:41;;;;;;;8.27;4.10;;;;;;;18.88;36.65;99637.72;5025494;28;20205;-68
2021/03/30 09:22:12;;;;;;;9.83;4.13;;;;;;;18.04;37.68;99641.41;5022587;28;20208;-71
2021/03/30 09:27:40;;;;;;;7.67;4.10;;;;;;;18.75;36.59;99642.34;5007847;28;20201;-72
2021/03/30 09:30:09;;;;;;;8.47;4.00;;;;;;;18.66;36.67;99627.41;5020322;28;20216;-70
2021/03/30 09:32:38;;;;;;;13.67;3.70;;;;;;;18.77;35.98;99634.84;5022080;28;20220;-70
2021/03/30 09:35:10;;;;;;;9.83;3.63;;;;;;;19.83;34.43;99630.31;5013460;28;20367;-70
2021/03/30 09:37:43;;;;;;;11.60;4.40;;;;;;;19.96;33.92;99632.09;5017581;28;20204;-70
2021/03/30 09:40:12;;;;;;;8.53;3.50;;;;;;;18.84;35.14;99636.47;5019119;28;20611;-68
2021/03/30 09:42:42;;;;;;;7.60;3.50;;;;;;;19.85;33.92;99630.06;5014523;28;20236;-70
2021/03/30 09:45:10;;;;;;;12.83;3.83;;;;;;;20.52;33.47;99627.41;5017700;28;20227;-70
2021/03/30 09:47:37;;;;;;;7.50;3.30;;;17.30;1.00;;;20.57;33.27;99624.84;5020984;28;20210;-70
2021/03/30 09:50:06;;;;;;;7.60;3.23;;;17.40;1.00;;;20.30;32.69;99631.56;5013398;28;20698;-71
2021/03/30 09:52:34;;;;;;;7.90;3.23;;;17.30;1.00;;;19.90;33.42;99627.53;5013861;28;20269;-71
2021/03/30 09:55:00;;;;;;;7.53;3.33;;;17.30;1.00;;;20.44;33.26;99622.25;5013585;28;20216;-71
2021/03/30 09:57:29;;;;;;;8.53;3.80;;;17.40;1.00;;;20.64;32.24;99622.88;5014659;28;20942;-71
2021/03/30 09:59:57;;;;;;;7.30;3.63;;;17.50;1.00;;;20.88;32.37;99621.97;5017529;28;20595;-71
2021/03/30 10:02:27;;;;;;;8.07;3.30;;;17.70;1.00;;;20.72;31.68;99626.09;5013298;28;20235;-72
2021/03/30 10:04:54;;;;;;;8.57;3.40;;;17.80;1.00;;;20.30;32.45;99620.72;5012258;28;20869;-72
2021/03/30 10:07:22;;;;;;;8.30;3.60;;;17.90;1.00;;;20.56;32.81;99612.31;5014349;28;20696;-70
2021/03/30 10:10:04;;;;;;;9.07;3.80;;;17.70;1.00;;;21.20;32.48;99601.72;5012155;28;20665;-71
2021/03/30 10:12:33;;;;;;;7.30;3.53;;;17.90;1.00;;;21.21;32.25;99608.81;5008939;28;20318;-73
2021/03/30 10:15:01;;;;;;;6.90;3.83;;;18.10;1.00;;;21.59;30.97;99606.59;5022322;28;20207;-72
2021/03/30 10:17:30;;;;;;;9.93;3.70;;;18.40;1.00;;;21.07;31.72;99607.34;5010477;28;20199;-70
2021/03/30 10:19:58;;;;;;;7.90;3.80;;;18.40;1.00;;;21.89;30.81;99601.94;5013132;28;20845;-72
2021/03/30 10:22:32;;;;;;;6.77;3.47;;;18.60;1.00;;;21.73;30.64;99598.00;5010998;28;20305;-73
2021/03/30 10:25:17;;;;;;;7.10;3.67;;;18.70;1.00;;;21.85;30.98;99592.59;5014360;28;20211;-72
2021/03/30 10:27:54;;;;;;;17.80;5.00;;;18.70;1.00;;;22.60;30.15;99595.19;5022620;28;20563;-73
2021/03/30 10:30:32;;;;;;;6.80;3.30;;;19.10;1.00;;;22.76;29.24;99602.63;5014730;28;20277;-72
2021/03/30 10:33:05;;;;;;;10.43;3.50;;;19.30;1.00;;;21.51;30.28;99602.31;5016260;28;20242;-72
2021/03/30 10:35:31;;;;;;;6.77;3.67;;;19.20;1.00;;;22.21;30.51;99592.38;5017217;28;20224;-72
2021/03/30 10:37:58;;;;;;;29.43;17.90;;;19.20;1.00;;;22.30;29.24;99594.50;5020181;28;20576;-73
2021/03/30 10:40:33;;;;;;;6.73;3.80;;;19.30;1.00;;;22.01;29.83;99583.75;5013173;28;20829;-75
2021/03/30 10:43:20;;;;;;;23.13;5.10;;;19.30;1.00;;;22.19;29.65;99594.53;5010184;28;20282;-74
2021/03/30 10:45:47;;;;;;;5.90;3.37;;;19.30;1.00;;;22.83;27.81;99591.59;5014670;28;20266;-74
2021/03/30 10:48:14;;;;;;;8.40;3.63;;;19.40;1.00;;;23.25;27.28;99582.13;5014444;28;20207;-74
2021/03/30 10:50:41;;;;;;;6.47;3.67;;;19.80;1.00;;;22.93;27.82;99589.09;5014167;28;20580;-77
2021/03/30 10:53:08;;;;;;;8.33;3.60;;;19.90;1.00;;;22.42;27.42;99586.31;5013760;28;20234;-78
2021/03/30 10:55:35;;;;;;;8.20;3.57;;;19.80;1.00;;;22.64;27.38;99585.50;5012552;28;20594;-72
2021/03/30 10:58:05;;;;;;;7.93;3.50;;;19.80;1.00;;;22.14;27.65;99580.81;5013672;28;20204;-72
2021/03/30 11:00:32;;;;;;;8.80;3.43;;;19.70;1.00;;;22.64;27.79;99579.25;5009185;28;20209;-72
2021/03/30 11:02:59;;;;;;;5.53;3.30;;;19.80;1.00;;;22.63;26.66;99583.00;5014650;28;20227;-72
2021/03/30 11:05:26;;;;;;;5.70;3.03;;;20.00;1.00;;;22.49;26.52;99578.91;5012355;28;20601;-72
2021/03/30 11:07:53;;;;;;;11.47;3.67;;;20.00;1.00;;;23.18;26.69;99576.00;5013410;28;20203;-71
2021/03/30 11:10:21;;;;;;;10.17;3.90;;;20.10;1.00;;;23.01;26.38;99578.63;5013288;28;20211;-71
2021/03/30 11:12:48;;;;;;;6.47;3.27;;;20.20;1.00;;;22.98;25.89;99570.13;5006987;28;20322;-71
2021/03/30 11:15:15;;;;;;;6.57;3.20;;;20.30;1.00;;;23.86;25.01;99573.94;5011795;28;20601;-71
2021/03/30 11:17:42;;;;;;;5.80;3.20;;;20.50;1.00;;;23.16;25.41;99569.94;5011661;28;20203;-71
2021/03/30 11:20:12;;;;;;;7.10;3.00;;;20.60;1.00;;;23.36;25.40;99567.63;5011005;28;20205;-71
2021/03/30 11:22:43;;;;;;;9.03;3.40;;;20.70;1.00;;;23.18;25.02;99573.28;5018280;28;20344;-71
2021/03/30 11:25:12;;;;;;;7.00;3.20;;;20.60;1.00;;;23.70;24.78;99561.13;5015137;28;20297;-71
2021/03/30 11:27:41;;;;;;;8.40;3.43;;;20.60;1.00;;;23.49;23.87;99572.75;5011826;28;20231;-71
2021/03/30 11:30:12;;;;;;;6.23;2.90;;;20.90;1.00;;;23.66;23.44;99568.97;5015856;28;20209;-71
2021/03/30 11:32:43;;;;;;;7.37;2.80;;;20.90;1.00;;;24.40;23.05;99563.06;5016240;28;20270;-73
2021/03/30 11:35:14;;;;;;;6.47;3.30;;;21.10;1.00;;;24.19;22.88;99560.28;5017192;28;20299;-71
2021/03/30 11:40:25;;;;;;;5.80;3.00;;;21.30;1.00;;;23.78;22.51;99566.16;5020733;28;20224;-80